Time;durP1;ratioP1;P1;durP2;ratioP2;P2;SDS_P1;SDS_P2;PMS_P1;PMS_P2;Temp;Humidity;BMP_temperature;BMP_pressure;BME280_temperature;BME280_humidity;BME280_pressure;Samples;Min_cycle;Max_cycle;Signal;HPM_P1;HPM_P2
2023/04/18 00:00:47;;;;;;;15.35;11.93;;;8.70;99.30;;;;;;5135775;27;20211;-67
2023/04/18 00:03:15;;;;;;;13.35;11.45;;;8.70;99.80;;;;;;5135569;27;20188;-67
2023/04/18 00:05:46;;;;;;;15.88;12.85;;;8.70;99.60;;;;;;5135706;27;20192;-67
2023/04/18 00:08:14;;;;;;;14.75;12.70;;;8.70;99.70;;;;;;5134622;27;20191;-67
2023/04/18 00:10:42;;;;;;;17.50;13.10;;;8.70;99.80;;;;;;5135323;27;20184;-67
2023/04/18 00:13:10;;;;;;;18.35;14.57;;;8.70;99.90;;;;;;5135123;27;20214;-67
2023/04/18 00:15:38;;;;;;;16.55;13.38;;;8.80;99.90;;;;;;5135078;27;20220;-67
2023/04/18 00:18:07;;;;;;;17.27;14.00;;;8.80;99.90;;;;;;5135022;27;20673;-67
2023/04/18 00:20:37;;;;;;;16.55;13.10;;;8.80;99.90;;;;;;5135483;27;20215;-67
2023/04/18 00:23:05;;;;;;;16.42;13.38;;;8.80;99.90;;;;;;5135401;27;20176;-67
2023/04/18 00:25:32;;;;;;;15.13;12.43;;;8.80;99.70;;;;;;5135255;27;20191;-67
2023/04/18 00:28:00;;;;;;;13.95;12.05;;;8.80;99.80;;;;;;5134838;27;20192;-67
2023/04/18 00:30:27;;;;;;;15.80;13.13;;;8.80;99.70;;;;;;5135501;27;20199;-66
2023/04/18 00:32:55;;;;;;;17.25;13.23;;;8.80;99.90;;;;;;5135239;27;20215;-67
2023/04/18 00:35:22;;;;;;;14.60;12.90;;;8.80;99.90;;;;;;5135002;27;20403;-67
2023/04/18 00:37:49;;;;;;;17.67;14.00;;;8.70;99.90;;;;;;5135064;27;20604;-66
2023/04/18 00:40:17;;;;;;;16.38;13.85;;;8.80;99.90;;;;;;5134478;27;20266;-67
2023/04/18 00:42:44;;;;;;;18.50;13.57;;;8.80;99.90;;;;;;5134786;27;20223;-67
2023/04/18 00:45:13;;;;;;;19.40;14.65;;;8.80;99.90;;;;;;5134453;27;20270;-67
2023/04/18 00:47:40;;;;;;;14.70;13.02;;;8.80;99.90;;;;;;5134967;27;20188;-67
2023/04/18 00:50:09;;;;;;;18.00;15.27;;;8.80;99.90;;;;;;5134354;27;20187;-67
2023/04/18 00:52:37;;;;;;;15.75;13.80;;;8.80;99.90;;;;;;5134938;27;20191;-66
2023/04/18 00:55:08;;;;;;;20.33;14.27;;;8.80;99.90;;;;;;5134524;27;20237;-67
2023/04/18 00:57:40;;;;;;;18.48;13.82;;;8.80;99.90;;;;;;5134647;27;20227;-67
2023/04/18 01:00:08;;;;;;;16.10;12.77;;;8.80;99.90;;;;;;5134161;27;20180;-67
2023/04/18 01:02:38;;;;;;;16.20;13.35;;;8.90;99.90;;;;;;5134230;27;20535;-67
2023/04/18 01:05:06;;;;;;;18.67;14.57;;;8.90;99.90;;;;;;5134091;27;20190;-67
2023/04/18 01:07:36;;;;;;;18.58;14.13;;;8.90;99.90;;;;;;5133889;27;20188;-66
2023/04/18 01:10:04;;;;;;;19.15;13.07;;;8.90;99.90;;;;;;5134187;27;20187;-67
2023/04/18 01:12:32;;;;;;;18.02;14.75;;;8.90;99.90;;;;;;5133943;27;20183;-66
2023/04/18 01:15:02;;;;;;;16.13;13.82;;;8.90;99.90;;;;;;5134017;27;20227;-66
2023/04/18 01:17:30;;;;;;;18.08;13.98;;;8.90;99.90;;;;;;5134364;27;20187;-67
2023/04/18 01:20:00;;;;;;;16.75;13.98;;;8.90;99.90;;;;;;5133840;27;20278;-67
2023/04/18 01:22:28;;;;;;;15.88;14.18;;;8.90;99.90;;;;;;5133424;27;20222;-67
2023/04/18 01:24:57;;;;;;;16.50;13.40;;;8.90;99.90;;;;;;5134103;27;20231;-67
2023/04/18 01:27:24;;;;;;;19.77;13.95;;;8.90;99.90;;;;;;5133712;27;20219;-67
2023/04/18 01:29:52;;;;;;;14.05;12.40;;;8.90;99.90;;;;;;5134057;27;20184;-67
2023/04/18 01:32:19;;;;;;;16.20;13.00;;;8.90;99.90;;;;;;5133319;27;20193;-67
2023/04/18 01:34:47;;;;;;;17.48;13.60;;;8.90;99.90;;;;;;5133905;27;20619;-67
2023/04/18 01:37:14;;;;;;;18.70;14.45;;;8.90;99.90;;;;;;5133325;27;20191;-67
2023/04/18 01:39:41;;;;;;;19.33;15.05;;;8.90;99.90;;;;;;5133750;27;20191;-67
2023/04/18 01:42:09;;;;;;;19.88;15.40;;;8.90;99.90;;;;;;5133455;27;20268;-67
2023/04/18 01:44:37;;;;;;;19.17;15.15;;;8.90;99.90;;;;;;5133982;27;20592;-67
2023/04/18 01:47:04;;;;;;;20.42;14.82;;;9.00;99.90;;;;;;5133443;27;20587;-67
2023/04/18 01:49:32;;;;;;;18.27;13.77;;;9.00;99.90;;;;;;5133859;27;20199;-66
2023/04/18 01:51:59;;;;;;;19.00;14.70;;;9.00;99.90;;;;;;5133396;27;20193;-67
2023/04/18 01:54:26;;;;;;;17.60;13.80;;;9.00;99.90;;;;;;5113128;28;20220;-67
2023/04/18 01:56:54;;;;;;;17.20;14.05;;;9.00;99.90;;;;;;5119125;27;20191;-66
2023/04/18 01:59:23;;;;;;;17.13;13.70;;;9.00;99.90;;;;;;5133561;27;20211;-67
2023/04/18 02:01:50;;;;;;;20.52;13.30;;;9.10;99.90;;;;;;5132781;27;20222;-67
2023/04/18 02:04:17;;;;;;;16.98;13.70;;;9.10;99.90;;;;;;5133088;27;20188;-67
2023/04/18 02:06:44;;;;;;;18.00;14.15;;;9.10;99.90;;;;;;5133304;27;20581;-67
2023/04/18 02:09:11;;;;;;;15.50;13.90;;;9.10;99.90;;;;;;5133451;27;20199;-67
2023/04/18 02:11:38;;;;;;;17.33;15.10;;;9.10;99.90;;;;;;5133004;28;20687;-67
2023/04/18 02:14:06;;;;;;;19.08;12.32;;;9.00;99.90;;;;;;5133425;27;20196;-68
2023/04/18 02:16:37;;;;;;;18.73;13.98;;;9.00;99.90;;;;;;5132669;27;20224;-67
2023/04/18 02:19:05;;;;;;;15.07;12.85;;;9.00;99.90;;;;;;5133251;27;20227;-67
2023/04/18 02:21:32;;;;;;;15.55;12.50;;;9.00;99.90;;;;;;5132885;28;20255;-67
2023/04/18 02:23:59;;;;;;;17.73;14.80;;;9.10;99.90;;;;;;5133309;28;20188;-67
2023/04/18 02:26:26;;;;;;;17.75;13.02;;;9.00;99.90;;;;;;5133176;28;20191;-67
2023/04/18 02:28:54;;;;;;;18.33;13.77;;;9.10;99.90;;;;;;5132605;28;20261;-67
2023/04/18 02:31:21;;;;;;;14.07;11.63;;;9.10;99.90;;;;;;5133262;27;20180;-67
2023/04/18 02:33:50;;;;;;;13.88;12.32;;;9.10;99.90;;;;;;5136637;27;20594;-67
2023/04/18 02:36:17;;;;;;;17.17;14.23;;;9.10;99.90;;;;;;5137184;27;20270;-66
2023/04/18 02:38:45;;;;;;;13.95;12.32;;;9.10;99.90;;;;;;5136877;27;20195;-67
2023/04/18 02:41:16;;;;;;;15.75;13.00;;;9.10;99.90;;;;;;5137239;27;20746;-67
2023/04/18 02:43:43;;;;;;;19.25;13.48;;;9.10;99.90;;;;;;5137220;27;20192;-68
2023/04/18 02:46:10;;;;;;;17.52;13.60;;;9.10;99.90;;;;;;5136691;27;20228;-67
2023/04/18 02:48:38;;;;;;;17.08;13.02;;;9.10;99.90;;;;;;5136999;27;20595;-67
2023/04/18 02:51:07;;;;;;;13.43;11.00;;;9.10;99.90;;;;;;5136513;27;20244;-68
2023/04/18 02:53:35;;;;;;;17.10;13.73;;;9.10;99.90;;;;;;5136798;27;20654;-68
2023/04/18 02:56:02;;;;;;;18.90;14.85;;;9.20;99.90;;;;;;5136833;27;20188;-67
2023/04/18 02:58:29;;;;;;;16.65;12.32;;;9.10;99.90;;;;;;5137205;27;20260;-67
2023/04/18 03:00:57;;;;;;;16.65;13.13;;;9.10;99.90;;;;;;5136449;27;20223;-67
2023/04/18 03:03:25;;;;;;;16.75;13.45;;;9.10;99.90;;;;;;5136738;27;20191;-66
2023/04/18 03:05:52;;;;;;;15.18;12.48;;;9.10;99.90;;;;;;5136189;27;20235;-67
2023/04/18 03:08:21;;;;;;;19.17;14.00;;;9.10;99.90;;;;;;5136721;27;20549;-67
2023/04/18 03:10:48;;;;;;;16.05;12.35;;;9.20;99.90;;;;;;5136372;27;20523;-68
2023/04/18 03:13:16;;;;;;;16.58;12.88;;;9.20;99.90;;;;;;5136785;27;20187;-66
2023/04/18 03:15:43;;;;;;;17.10;12.65;;;9.20;99.90;;;;;;5136112;27;20211;-67
2023/04/18 03:18:12;;;;;;;15.82;12.95;;;9.20;99.90;;;;;;5136762;27;20282;-66
2023/04/18 03:20:39;;;;;;;16.15;12.30;;;9.30;99.90;;;;;;5136218;27;20186;-67
2023/04/18 03:23:07;;;;;;;15.60;12.20;;;9.30;99.90;;;;;;5136533;27;20212;-67
2023/04/18 03:25:36;;;;;;;20.90;14.80;;;9.30;99.90;;;;;;5136010;27;20187;-67
2023/04/18 03:28:03;;;;;;;17.38;13.43;;;9.30;99.90;;;;;;5136477;27;20298;-67
2023/04/18 03:30:31;;;;;;;16.58;12.85;;;9.30;99.90;;;;;;5136158;27;20183;-68
2023/04/18 03:33:01;;;;;;;16.58;13.00;;;9.30;99.90;;;;;;5136325;27;20557;-67
2023/04/18 03:35:28;;;;;;;14.90;11.05;;;9.30;99.90;;;;;;5136273;27;20188;-67
2023/04/18 03:37:56;;;;;;;15.55;11.75;;;9.30;99.90;;;;;;5136478;27;20188;-67
2023/04/18 03:40:23;;;;;;;15.35;13.68;;;9.30;99.90;;;;;;5135431;27;20229;-67
2023/04/18 03:42:52;;;;;;;16.75;12.95;;;9.30;99.90;;;;;;5135696;27;20268;-67
2023/04/18 03:45:19;;;;;;;16.45;12.77;;;9.30;99.90;;;;;;5135384;27;20591;-67
2023/04/18 03:47:46;;;;;;;18.48;13.80;;;9.30;99.90;;;;;;5136165;27;20183;-67
2023/04/18 03:50:14;;;;;;;18.80;12.85;;;9.30;99.90;;;;;;5135301;27;20184;-67
2023/04/18 03:52:41;;;;;;;17.95;13.30;;;9.30;99.90;;;;;;5135368;27;20188;-67
2023/04/18 03:55:10;;;;;;;16.25;12.57;;;9.30;99.90;;;;;;5135737;27;20179;-67
2023/04/18 03:57:39;;;;;;;19.23;14.63;;;9.30;99.90;;;;;;5135960;27;20184;-67
2023/04/18 04:00:11;;;;;;;15.43;12.80;;;9.30;99.90;;;;;;5135795;27;20582;-67
2023/04/18 04:02:38;;;;;;;18.50;12.30;;;9.30;99.90;;;;;;5136294;27;20206;-67
2023/04/18 04:05:06;;;;;;;17.20;13.20;;;9.30;99.90;;;;;;5135592;27;20207;-67
2023/04/18 04:07:34;;;;;;;14.85;12.82;;;9.20;99.90;;;;;;5135939;27;20199;-66
2023/04/18 04:10:01;;;;;;;15.13;12.32;;;9.20;99.90;;;;;;5135689;27;20240;-67
2023/04/18 04:12:28;;;;;;;17.40;11.75;;;9.20;99.90;;;;;;5136019;27;20188;-67
2023/04/18 04:14:56;;;;;;;16.60;13.18;;;9.20;99.90;;;;;;5135045;27;20723;-67
2023/04/18 04:17:24;;;;;;;19.00;14.45;;;9.20;99.90;;;;;;5135665;27;20192;-67
2023/04/18 04:19:51;;;;;;;15.15;12.63;;;9.20;99.90;;;;;;5135075;27;20301;-67
2023/04/18 04:22:19;;;;;;;18.17;12.60;;;9.20;99.90;;;;;;5135334;27;20238;-66
2023/04/18 04:24:46;;;;;;;20.63;14.85;;;9.20;99.90;;;;;;5135263;27;20180;-67
2023/04/18 04:27:13;;;;;;;18.77;14.80;;;9.20;99.90;;;;;;5135639;27;20236;-67
2023/04/18 04:29:42;;;;;;;18.35;13.48;;;9.20;99.90;;;;;;5134921;27;20183;-67
2023/04/18 04:32:11;;;;;;;19.40;14.40;;;9.20;99.90;;;;;;5135083;27;20216;-67
2023/04/18 04:34:41;;;;;;;19.02;14.13;;;9.10;99.90;;;;;;5135453;27;20256;-66
2023/04/18 04:37:08;;;;;;;15.68;12.60;;;9.20;99.90;;;;;;5134849;27;20187;-67
2023/04/18 04:39:35;;;;;;;18.85;13.18;;;9.20;99.90;;;;;;5135210;27;20642;-66
2023/04/18 04:42:03;;;;;;;18.05;12.75;;;9.20;99.90;;;;;;5134739;27;20266;-67
2023/04/18 04:44:30;;;;;;;20.15;14.98;;;9.20;99.90;;;;;;5114651;28;20227;-67
2023/04/18 04:46:57;;;;;;;18.77;13.48;;;9.10;99.90;;;;;;5114639;28;20188;-67
2023/04/18 04:49:24;;;;;;;17.02;14.07;;;9.10;99.90;;;;;;5133566;27;20184;-67
2023/04/18 04:51:53;;;;;;;19.58;15.60;;;9.20;99.90;;;;;;5135068;27;20525;-67
2023/04/18 04:54:20;;;;;;;20.25;14.50;;;9.20;99.90;;;;;;5134104;27;20535;-67
2023/04/18 04:56:47;;;;;;;22.77;15.20;;;9.20;99.90;;;;;;5134017;27;20272;-67
2023/04/18 04:59:14;;;;;;;22.23;16.80;;;9.20;99.90;;;;;;5133897;27;20184;-67
2023/04/18 05:01:41;;;;;;;19.40;15.05;;;9.20;99.90;;;;;;5134766;27;20215;-67
2023/04/18 05:04:09;;;;;;;17.48;14.43;;;9.30;99.90;;;;;;5134243;27;20639;-67
2023/04/18 05:06:36;;;;;;;22.83;15.82;;;9.30;99.90;;;;;;5134656;27;20184;-67
2023/04/18 05:09:05;;;;;;;20.17;15.73;;;9.30;99.90;;;;;;5133747;27;20187;-66
2023/04/18 05:11:32;;;;;;;16.85;13.07;;;9.40;99.90;;;;;;5134598;27;20192;-67
2023/04/18 05:13:59;;;;;;;17.80;14.05;;;9.40;99.90;;;;;;5134176;27;20195;-67
2023/04/18 05:16:27;;;;;;;19.13;13.98;;;9.50;99.90;;;;;;5134285;27;20287;-67
2023/04/18 05:18:54;;;;;;;19.30;13.80;;;9.50;99.90;;;;;;5133645;27;20206;-66
2023/04/18 05:21:21;;;;;;;21.45;16.95;;;9.50;99.90;;;;;;5134288;27;20195;-67
2023/04/18 05:23:48;;;;;;;19.42;15.45;;;9.50;99.90;;;;;;5133586;27;20216;-67
2023/04/18 05:26:17;;;;;;;25.02;17.95;;;9.50;99.90;;;;;;5134023;27;20269;-67
2023/04/18 05:28:44;;;;;;;20.38;16.83;;;9.50;99.90;;;;;;5133527;27;20287;-67
2023/04/18 05:31:11;;;;;;;24.42;15.60;;;9.50;99.90;;;;;;5134401;27;20188;-67
2023/04/18 05:33:38;;;;;;;21.58;15.45;;;9.50;99.90;;;;;;5133615;27;20236;-67
2023/04/18 05:36:06;;;;;;;21.05;14.93;;;9.50;99.90;;;;;;5133677;27;20212;-66
2023/04/18 05:38:33;;;;;;;20.70;14.30;;;9.50;99.90;;;;;;5133839;27;20274;-67
2023/04/18 05:41:01;;;;;;;24.73;16.70;;;9.50;99.90;;;;;;5117492;27;20184;-67
2023/04/18 05:43:30;;;;;;;19.38;15.68;;;9.50;99.90;;;;;;5134186;27;20251;-66
2023/04/18 05:45:57;;;;;;;25.40;16.98;;;9.60;99.90;;;;;;5133743;27;20231;-66
2023/04/18 05:48:24;;;;;;;21.98;15.57;;;9.60;99.90;;;;;;5133741;27;20248;-67
2023/04/18 05:50:52;;;;;;;22.17;16.80;;;9.60;99.90;;;;;;5133667;27;20184;-67
2023/04/18 05:53:19;;;;;;;22.02;16.27;;;9.60;99.90;;;;;;5133507;27;20184;-66
2023/04/18 05:55:47;;;;;;;23.42;16.52;;;9.60;99.90;;;;;;5133915;27;20592;-67
2023/04/18 05:58:15;;;;;;;22.23;15.63;;;9.60;99.90;;;;;;5133539;27;20267;-67
2023/04/18 06:00:43;;;;;;;22.25;15.10;;;9.60;99.90;;;;;;5133769;27;20191;-67
2023/04/18 06:03:11;;;;;;;20.38;15.05;;;9.60;99.90;;;;;;5133213;27;20623;-67
2023/04/18 06:05:39;;;;;;;22.02;15.23;;;9.60;99.90;;;;;;5133755;27;20880;-68
2023/04/18 06:08:07;;;;;;;23.70;18.65;;;9.60;99.90;;;;;;5132820;27;20194;-67
2023/04/18 06:10:34;;;;;;;27.63;15.65;;;9.60;99.90;;;;;;5133853;27;20187;-67
2023/04/18 06:13:01;;;;;;;23.35;14.95;;;9.60;99.90;;;;;;5131992;27;20219;-67
2023/04/18 06:15:28;;;;;;;23.83;17.88;;;9.60;99.90;;;;;;5132696;27;20720;-67
2023/04/18 06:17:58;;;;;;;18.75;14.63;;;9.70;99.90;;;;;;5132938;27;20188;-68
2023/04/18 06:20:25;;;;;;;21.33;16.48;;;9.80;99.90;;;;;;5131387;27;20287;-67
2023/04/18 06:22:52;;;;;;;24.83;16.10;;;9.90;99.90;;;;;;5125193;28;20196;-67
2023/04/18 06:25:19;;;;;;;20.52;14.77;;;9.90;99.90;;;;;;5124022;28;20211;-67
2023/04/18 06:27:46;;;;;;;20.35;14.35;;;10.00;99.90;;;;;;5124024;28;20267;-67
2023/04/18 06:30:14;;;;;;;23.45;14.35;;;10.10;99.90;;;;;;5118531;28;20681;-67
2023/04/18 06:32:42;;;;;;;18.85;13.07;;;10.10;99.70;;;;;;5132496;28;20188;-67
2023/04/18 06:35:10;;;;;;;23.88;16.40;;;10.20;99.70;;;;;;5132178;28;20184;-68
2023/04/18 06:37:37;;;;;;;19.63;13.98;;;10.30;99.20;;;;;;5133295;28;20272;-68
2023/04/18 06:40:05;;;;;;;20.55;16.08;;;10.30;99.30;;;;;;5126995;28;20274;-68
2023/04/18 06:42:32;;;;;;;19.60;13.77;;;10.20;99.40;;;;;;5115541;28;20244;-67
2023/04/18 06:44:59;;;;;;;16.10;13.05;;;10.30;99.20;;;;;;5124268;28;20662;-67
2023/04/18 06:47:27;;;;;;;22.67;14.32;;;10.50;98.50;;;;;;5132478;28;20223;-67
2023/04/18 06:49:53;;;;;;;21.30;15.77;;;10.50;98.60;;;;;;5129361;28;20222;-68
2023/04/18 06:52:22;;;;;;;20.90;14.75;;;10.50;98.60;;;;;;5132160;28;20282;-67
2023/04/18 06:54:49;;;;;;;21.08;14.45;;;10.60;98.10;;;;;;5131893;28;20270;-67
2023/04/18 06:57:16;;;;;;;19.40;14.10;;;10.70;97.50;;;;;;5127514;28;20537;-67
2023/04/18 06:59:43;;;;;;;20.67;15.43;;;10.80;97.30;;;;;;5127007;28;20649;-67
2023/04/18 07:02:11;;;;;;;18.08;13.50;;;10.90;97.30;;;;;;5126646;28;20266;-67
2023/04/18 07:04:38;;;;;;;17.70;13.25;;;11.10;96.00;;;;;;5125002;28;20274;-67
2023/04/18 07:07:05;;;;;;;17.13;14.45;;;11.10;96.00;;;;;;5127691;28;20283;-67
2023/04/18 07:09:33;;;;;;;21.85;13.90;;;11.20;95.70;;;;;;5128185;28;20200;-67
2023/04/18 07:12:00;;;;;;;22.40;15.82;;;11.30;95.70;;;;;;5127933;28;20240;-67
2023/04/18 07:14:29;;;;;;;21.15;13.50;;;11.50;94.60;;;;;;5123771;28;20223;-67
2023/04/18 07:16:57;;;;;;;22.65;14.13;;;11.50;94.60;;;;;;5127779;28;20279;-67
2023/04/18 07:19:24;;;;;;;19.23;14.50;;;11.50;93.50;;;;;;5126024;27;20200;-68
2023/04/18 07:21:51;;;;;;;20.63;14.53;;;11.60;93.70;;;;;;5135885;27;20927;-67
2023/04/18 07:24:18;;;;;;;22.52;14.82;;;11.80;94.10;;;;;;5135113;27;20480;-68
2023/04/18 07:26:46;;;;;;;23.95;15.07;;;12.10;94.10;;;;;;5132421;27;20196;-67
2023/04/18 07:29:13;;;;;;;19.23;14.18;;;12.40;93.00;;;;;;5124760;27;20231;-68
2023/04/18 07:31:40;;;;;;;18.80;14.03;;;12.70;91.60;;;;;;5127564;27;20244;-67
2023/04/18 07:34:07;;;;;;;18.38;16.13;;;12.80;91.50;;;;;;5127241;27;20528;-68
2023/04/18 07:36:36;;;;;;;15.40;13.60;;;13.00;91.60;;;;;;5131969;27;20211;-68
2023/04/18 07:39:03;;;;;;;15.97;13.00;;;13.30;91.60;;;;;;5133524;27;20477;-68
2023/04/18 07:41:30;;;;;;;26.00;16.57;;;13.60;91.30;;;;;;5134023;27;20425;-68
2023/04/18 07:43:58;;;;;;;17.50;13.87;;;14.00;90.70;;;;;;5130092;27;20876;-67
2023/04/18 07:46:25;;;;;;;17.77;13.57;;;14.40;86.40;;;;;;5129177;27;20486;-68
2023/04/18 07:48:52;;;;;;;14.67;11.63;;;15.20;83.50;;;;;;5126791;27;20525;-68
2023/04/18 07:51:19;;;;;;;15.00;12.27;;;16.10;78.70;;;;;;5131352;27;20512;-68
2023/04/18 07:53:46;;;;;;;13.07;11.13;;;16.80;71.80;;;;;;5126953;27;20468;-68
2023/04/18 07:56:13;;;;;;;16.17;12.77;;;17.20;67.90;;;;;;5135217;27;20520;-68
2023/04/18 07:58:40;;;;;;;12.77;10.50;;;17.50;65.00;;;;;;5135626;27;20437;-69
2023/04/18 08:01:12;;;;;;;13.67;10.70;;;17.70;62.50;;;;;;5126694;27;20469;-68
2023/04/18 08:03:39;;;;;;;14.00;11.37;;;18.00;61.10;;;;;;5126874;27;21002;-68
2023/04/18 08:06:06;;;;;;;12.07;10.43;;;18.50;59.80;;;;;;5135458;27;20477;-68
2023/04/18 08:08:34;;;;;;;14.63;10.30;;;18.90;58.10;;;;;;5126624;27;20525;-68
2023/04/18 08:11:01;;;;;;;14.97;10.53;;;19.10;56.00;;;;;;5131156;27;20530;-68
2023/04/18 08:13:28;;;;;;;13.60;10.50;;;19.20;53.90;;;;;;5133336;27;20476;-68
2023/04/18 08:15:58;;;;;;;14.37;11.70;;;18.90;55.10;;;;;;5135335;27;20507;-68
2023/04/18 08:18:26;;;;;;;13.03;10.00;;;19.30;55.20;;;;;;5132192;27;20473;-68
2023/04/18 08:20:53;;;;;;;12.03;10.50;;;19.40;53.80;;;;;;5131606;27;21014;-68
2023/04/18 08:23:20;;;;;;;14.10;11.30;;;19.10;52.50;;;;;;5129610;27;20528;-68
2023/04/18 08:25:49;;;;;;;16.63;11.03;;;18.60;53.60;;;;;;5130737;27;20512;-68
2023/04/18 08:28:17;;;;;;;14.90;12.10;;;17.80;53.40;;;;;;5131736;27;20938;-68
2023/04/18 08:30:47;;;;;;;14.40;10.90;;;17.20;55.00;;;;;;5134742;27;20498;-68
2023/04/18 08:33:14;;;;;;;14.40;11.40;;;17.00;57.30;;;;;;5131500;27;20508;-68
2023/04/18 08:35:43;;;;;;;15.87;10.70;;;16.80;58.00;;;;;;5135106;27;20442;-68
2023/04/18 08:38:10;;;;;;;16.53;11.27;;;16.90;58.40;;;;;;5130929;27;20912;-68
2023/04/18 08:40:37;;;;;;;17.27;12.10;;;17.30;59.90;;;;;;5135198;27;20434;-68
2023/04/18 08:43:08;;;;;;;14.27;10.97;;;18.40;56.60;;;;;;5128665;27;20568;-68
2023/04/18 08:45:35;;;;;;;12.30;10.50;;;19.20;54.70;;;;;;5134603;27;20927;-68
2023/04/18 08:48:02;;;;;;;12.40;10.67;;;20.40;53.60;;;;;;5126597;27;20434;-68
2023/04/18 08:50:29;;;;;;;12.47;10.90;;;21.50;50.30;;;;;;5135203;27;20524;-68
2023/04/18 08:52:59;;;;;;;12.47;9.67;;;22.50;47.10;;;;;;5129942;27;20493;-68
2023/04/18 08:55:26;;;;;;;16.00;10.60;;;23.30;45.40;;;;;;5134628;27;20923;-68
2023/04/18 08:57:54;;;;;;;13.80;10.37;;;24.20;42.80;;;;;;5134489;27;20532;-68
2023/04/18 09:00:22;;;;;;;13.20;10.00;;;24.70;41.70;;;;;;5134298;27;20923;-68
2023/04/18 09:02:49;;;;;;;13.53;10.27;;;25.10;39.30;;;;;;5127118;27;20999;-69
2023/04/18 09:05:18;;;;;;;11.53;10.33;;;25.30;38.20;;;;;;5134502;27;20505;-68
2023/04/18 09:07:45;;;;;;;11.23;9.57;;;25.50;37.60;;;;;;5130182;27;20919;-68
2023/04/18 09:10:28;;;;;;;10.83;8.73;;;24.90;36.10;;;;;;5134491;27;20469;-68
2023/04/18 09:12:56;;;;;;;9.60;8.60;;;24.20;36.50;;;;;;5122513;27;20440;-68
2023/04/18 09:15:25;;;;;;;11.67;10.03;;;24.10;37.70;;;;;;5133619;27;21020;-68
2023/04/18 09:17:54;;;;;;;11.30;9.07;;;23.70;36.70;;;;;;5129790;27;20445;-68
2023/04/18 09:20:36;;;;;;;10.80;9.30;;;23.10;37.00;;;;;;5134092;27;20441;-68
2023/04/18 09:23:04;;;;;;;10.50;9.00;;;22.60;39.10;;;;;;5133083;27;20473;-68
2023/04/18 09:25:34;;;;;;;11.37;9.10;;;22.60;39.50;;;;;;5134302;27;20959;-68
2023/04/18 09:28:02;;;;;;;12.37;9.27;;;23.10;39.30;;;;;;5130359;27;20771;-68
2023/04/18 09:30:31;;;;;;;10.50;8.73;;;23.70;40.00;;;;;;5133589;27;20469;-68
2023/04/18 09:33:00;;;;;;;10.53;8.43;;;24.60;39.30;;;;;;5132798;27;20460;-68
2023/04/18 09:35:27;;;;;;;11.33;8.93;;;24.60;36.30;;;;;;5134180;27;20437;-68
2023/04/18 09:37:54;;;;;;;14.03;9.27;;;24.00;36.70;;;;;;5129542;27;20480;-68
2023/04/18 09:40:22;;;;;;;12.37;10.30;;;23.20;36.40;;;;;;5133938;27;20459;-68
2023/04/18 09:42:55;;;;;;;13.53;11.00;;;22.50;37.60;;;;;;5131803;27;20469;-68
2023/04/18 09:45:23;;;;;;;11.87;9.53;;;22.60;38.40;;;;;;5132923;27;20825;-68
2023/04/18 09:47:50;;;;;;;12.00;9.67;;;22.80;38.80;;;;;;5132903;27;20488;-68
2023/04/18 09:50:19;;;;;;;12.70;10.10;;;23.20;39.10;;;;;;5133343;27;20537;-68
2023/04/18 09:52:48;;;;;;;10.90;9.20;;;23.50;38.40;;;;;;5131801;27;20449;-68
2023/04/18 09:55:17;;;;;;;12.33;9.67;;;23.60;36.80;;;;;;5133017;27;20520;-68
2023/04/18 09:57:46;;;;;;;22.83;10.10;;;23.70;36.20;;;;;;5128343;27;20473;-69
2023/04/18 10:00:19;;;;;;;10.97;9.10;;;23.60;37.40;;;;;;5133551;27;20483;-68
2023/04/18 10:02:56;;;;;;;9.70;8.50;;;23.80;37.20;;;;;;5132063;27;20433;-68
2023/04/18 10:05:26;;;;;;;11.10;9.37;;;23.90;36.20;;;;;;5129166;27;20519;-68
2023/04/18 10:07:54;;;;;;;10.27;8.40;;;24.10;37.70;;;;;;5133882;27;20449;-68
2023/04/18 10:10:21;;;;;;;11.90;8.77;;;24.60;36.40;;;;;;5134230;27;20997;-67
2023/04/18 10:12:50;;;;;;;9.90;8.10;;;;;;;;;;5134156;27;20516;-68
2023/04/18 10:15:19;;;;;;;9.10;8.20;;;;;;;;;;5131622;27;20469;-68
2023/04/18 10:17:47;;;;;;;10.53;7.07;;;;;;;;;;5133454;27;20448;-68
2023/04/18 10:20:21;;;;;;;8.67;7.70;;;;;;;;;;5133839;27;20850;-68
2023/04/18 10:22:49;;;;;;;9.57;7.83;;;;;;;;;;5125256;27;20845;-69
2023/04/18 10:25:31;;;;;;;8.97;7.40;;;;;;;;;;5132604;28;21061;-68
2023/04/18 10:27:59;;;;;;;9.90;7.10;;;;;;;;;;5124143;28;20501;-68
2023/04/18 10:30:44;;;;;;;8.30;6.90;;;;;;;;;;5120252;28;20444;-68
2023/04/18 10:33:36;;;;;;;7.67;6.20;;;;;;;;;;5132245;28;20869;-69
2023/04/18 10:36:15;;;;;;;8.57;6.80;;;;;;;;;;5097744;28;20442;-68
2023/04/18 10:38:47;;;;;;;9.00;6.53;;;;;;;;;;5124392;28;20436;-69
2023/04/18 10:41:24;;;;;;;8.30;7.37;;;;;;;;;;5132759;28;20486;-69
2023/04/18 10:44:10;;;;;;;10.50;8.40;;;;;;;;;;5133207;28;20575;-69
2023/04/18 10:46:38;;;;;;;9.23;7.13;;;;;;;;;;5114005;28;20529;-72
2023/04/18 10:49:13;;;;;;;8.60;6.60;;;;;;;;;;5133514;28;20442;-69
2023/04/18 10:51:43;;;;;;;9.20;7.20;;;;;;;;;;5133519;28;20432;-69
2023/04/18 10:54:11;;;;;;;9.00;7.37;;;;;;;;;;5137121;27;20433;-69
2023/04/18 10:56:39;;;;;;;10.00;7.37;;;;;;;;;;5137422;27;20966;-69
2023/04/18 10:59:07;;;;;;;8.57;7.30;;;;;;;;;;5137821;27;20429;-69
2023/04/18 11:01:37;;;;;;;8.27;6.47;;;;;;;;;;5137481;27;20465;-69
2023/04/18 11:04:11;;;;;;;8.50;7.10;;;;;;;;;;5137473;27;20576;-69
2023/04/18 11:06:49;;;;;;;9.73;7.87;;;;;;;;;;5137696;27;20436;-69
2023/04/18 11:09:16;;;;;;;10.17;8.00;;;;;;;;;;5137654;27;20515;-69
2023/04/18 11:11:44;;;;;;;9.13;6.50;;;;;;;;;;5137273;27;20476;-68
2023/04/18 11:14:11;;;;;;;10.47;7.50;;;;;;;;;;5137333;27;20472;-69
2023/04/18 11:16:39;;;;;;;8.87;7.50;;;;;;;;;;5137468;27;20464;-69
2023/04/18 11:19:19;;;;;;;7.77;6.67;;;;;;;;;;5136946;27;20462;-69
2023/04/18 11:21:46;;;;;;;8.63;7.43;;;;;;;;;;5136743;27;20954;-69
2023/04/18 11:24:22;;;;;;;8.90;6.50;;;;;;;;;;5137258;27;20568;-68
2023/04/18 11:26:54;;;;;;;9.67;7.10;;;;;;;;;;5136722;27;20981;-68
2023/04/18 11:29:21;;;;;;;9.50;7.23;;;;;;;;;;5137064;27;20803;-68
2023/04/18 11:31:52;;;;;;;9.53;7.30;;;25.10;35.30;;;;;;5136584;27;20429;-69
2023/04/18 11:34:19;;;;;;;10.20;6.40;;;20.20;42.60;;;;;;5136858;27;20776;-69
2023/04/18 11:36:50;;;;;;;8.40;6.87;;;19.90;43.90;;;;;;5136207;27;20448;-69
2023/04/18 11:39:17;;;;;;;9.00;7.07;;;19.70;43.30;;;;;;5136018;27;20796;-69
2023/04/18 11:41:49;;;;;;;8.03;5.87;;;19.60;43.80;;;;;;5136673;27;20469;-70
2023/04/18 11:44:16;;;;;;;6.80;5.63;;;19.60;44.90;;;;;;5136275;27;20555;-69
2023/04/18 11:46:44;;;;;;;6.23;5.17;;;19.50;45.80;;;;;;5136337;27;20854;-68
2023/04/18 11:49:25;;;;;;;6.90;5.27;;;19.50;45.40;;;;;;5136238;27;20443;-69
2023/04/18 11:51:52;;;;;;;7.40;5.90;;;19.60;43.30;;;;;;5136160;27;20476;-69
2023/04/18 11:54:38;;;;;;;6.17;4.87;;;19.70;45.70;;;;;;5136330;27;20904;-69
2023/04/18 11:57:18;;;;;;;6.10;4.37;;;19.80;44.00;;;;;;5136324;27;20436;-69
2023/04/18 11:59:49;;;;;;;6.50;4.80;;;19.70;43.30;;;;;;5135978;27;20897;-69
2023/04/18 12:02:16;;;;;;;5.40;4.40;;;19.60;43.80;;;;;;5136103;27;20896;-69
2023/04/18 12:04:54;;;;;;;7.83;5.30;;;19.40;42.90;;;;;;5135454;27;20568;-69
2023/04/18 12:07:35;;;;;;;6.70;5.20;;;19.30;44.40;;;;;;5136113;27;20469;-69
2023/04/18 12:10:03;;;;;;;5.43;3.83;;;19.30;44.40;;;;;;5135649;27;20421;-69
2023/04/18 12:12:31;;;;;;;5.40;3.67;;;19.40;43.60;;;;;;5135956;27;20520;-68
2023/04/18 12:15:04;;;;;;;19.33;3.70;;;19.50;43.70;;;;;;5135887;27;20544;-68
2023/04/18 12:17:31;;;;;;;5.73;3.00;;;19.60;41.60;;;;;;5136040;27;20787;-70
2023/04/18 12:20:02;;;;;;;5.03;3.40;;;19.60;42.30;;;;;;5135743;27;20429;-69
2023/04/18 12:22:48;;;;;;;5.40;3.30;;;19.30;42.90;;;;;;5135553;27;20441;-69
2023/04/18 12:25:21;;;;;;;3.80;2.67;;;19.00;45.30;;;;;;5135884;27;20810;-69
2023/04/18 12:27:54;;;;;;;5.10;3.73;;;18.90;43.80;;;;;;5135799;27;20472;-69
2023/04/18 12:30:22;;;;;;;6.67;4.00;;;18.70;44.40;;;;;;5135711;27;20444;-69
2023/04/18 12:32:51;;;;;;;5.10;3.70;;;18.50;44.50;;;;;;5135656;27;20432;-68
2023/04/18 12:35:18;;;;;;;5.10;3.33;;;18.30;46.10;;;;;;5135689;27;20467;-69
2023/04/18 12:37:46;;;;;;;4.30;3.40;;;18.20;47.10;;;;;;5135436;27;20444;-69
2023/04/18 12:40:14;;;;;;;5.13;3.30;;;18.10;45.80;;;;;;5135440;27;20441;-69
2023/04/18 12:42:41;;;;;;;4.90;3.50;;;18.00;46.90;;;;;;5135450;27;20486;-69
2023/04/18 12:45:11;;;;;;;6.40;3.97;;;18.00;46.40;;;;;;5135121;27;20564;-69
2023/04/18 12:47:39;;;;;;;6.77;4.07;;;17.90;46.10;;;;;;5135518;27;20465;-69
2023/04/18 12:50:08;;;;;;;8.57;3.77;;;17.70;46.30;;;;;;5135320;27;20439;-70
2023/04/18 12:52:37;;;;;;;6.50;3.90;;;17.60;46.70;;;;;;5135134;27;20441;-69